Time;durP1;ratioP1;P1;durP2;ratioP2;P2;SDS_P1;SDS_P2;PMS_P1;PMS_P2;Temp;Humidity;BMP_temperature;BMP_pressure;BME280_temperature;BME280_humidity;BME280_pressure;Samples;Min_cycle;Max_cycle;Signal;HPM_P1;HPM_P2
2023/08/16 00:02:16;;;;;;;4.30;4.00;;;25.30;42.40;;;;;;10278540;28;20447;-70
2023/08/16 00:07:19;;;;;;;4.33;3.93;;;25.20;42.60;;;;;;10281467;28;20238;-70
2023/08/16 00:12:23;;;;;;;6.47;4.60;;;25.20;42.00;;;;;;10277222;28;20266;-70
2023/08/16 00:17:27;;;;;;;4.70;4.10;;;25.10;42.40;;;;;;10278654;28;20235;-70
2023/08/16 00:22:30;;;;;;;5.07;4.20;;;25.00;42.90;;;;;;10282621;28;20240;-70
2023/08/16 00:27:34;;;;;;;5.00;4.60;;;25.00;42.50;;;;;;10276401;28;20232;-70
2023/08/16 00:32:38;;;;;;;5.07;4.67;;;24.90;42.90;;;;;;10279915;28;20252;-70
2023/08/16 00:37:41;;;;;;;6.77;5.00;;;24.90;43.80;;;;;;10271577;28;20740;-70
2023/08/16 00:42:44;;;;;;;5.37;4.93;;;24.70;43.20;;;;;;10275581;28;20247;-70
2023/08/16 00:47:49;;;;;;;4.97;4.40;;;24.60;43.20;;;;;;10278348;28;20240;-70
2023/08/16 00:52:53;;;;;;;4.53;4.13;;;24.50;44.20;;;;;;10270053;28;20236;-70
2023/08/16 00:57:57;;;;;;;4.57;4.17;;;24.40;44.00;;;;;;10267407;28;20326;-70
2023/08/16 01:03:01;;;;;;;5.33;4.67;;;24.30;43.90;;;;;;10271857;28;20256;-70
2023/08/16 01:08:05;;;;;;;5.37;4.00;;;24.30;44.50;;;;;;10271854;28;20258;-70
2023/08/16 01:13:12;;;;;;;5.23;4.53;;;24.30;44.10;;;;;;10270146;28;20692;-70
2023/08/16 01:18:17;;;;;;;4.73;4.13;;;24.30;44.50;;;;;;10268413;28;20806;-70
2023/08/16 01:23:32;;;;;;;4.57;4.17;;;24.30;44.90;;;;;;10277048;28;20235;-70
2023/08/16 01:28:39;;;;;;;4.73;4.33;;;24.30;45.10;;;;;;10275284;28;20684;-71
2023/08/16 01:33:42;;;;;;;5.40;4.90;;;24.30;44.70;;;;;;10270557;28;20290;-70
2023/08/16 01:38:45;;;;;;;6.43;4.20;;;24.30;44.00;;;;;;10271556;28;20231;-70
2023/08/16 01:43:51;;;;;;;4.70;4.37;;;24.20;44.10;;;;;;10266929;28;20327;-70
2023/08/16 01:48:56;;;;;;;6.47;4.53;;;24.10;44.70;;;;;;10264179;28;20335;-71
2023/08/16 01:54:00;;;;;;;5.13;4.43;;;24.10;44.80;;;;;;10279609;28;20222;-70
2023/08/16 01:59:04;;;;;;;5.13;4.70;;;24.00;44.20;;;;;;10269841;28;20903;-70
2023/08/16 02:04:08;;;;;;;5.37;4.97;;;24.00;44.80;;;;;;10272342;28;20330;-70
2023/08/16 02:09:11;;;;;;;4.57;4.27;;;23.90;44.20;;;;;;10276147;28;20235;-70
2023/08/16 02:14:15;;;;;;;4.80;4.40;;;23.90;44.30;;;;;;10271795;28;20235;-70
2023/08/16 02:19:18;;;;;;;4.70;4.30;;;23.90;45.00;;;;;;10271727;28;20671;-70
2023/08/16 02:24:22;;;;;;;4.30;4.00;;;23.80;44.40;;;;;;10268780;28;20460;-70
2023/08/16 02:29:26;;;;;;;4.73;4.07;;;23.80;44.40;;;;;;10275282;28;20235;-70
2023/08/16 02:34:29;;;;;;;4.50;4.10;;;23.80;45.00;;;;;;10268690;28;20239;-70
2023/08/16 02:39:32;;;;;;;3.70;3.40;;;23.80;44.40;;;;;;10265264;28;20263;-70
2023/08/16 02:44:37;;;;;;;4.10;3.80;;;23.80;44.20;;;;;;10270979;28;20251;-70
2023/08/16 02:49:40;;;;;;;4.17;3.77;;;23.80;44.60;;;;;;10277943;28;20298;-70
2023/08/16 02:54:43;;;;;;;3.97;3.07;;;23.80;44.30;;;;;;10268793;28;20235;-70
2023/08/16 02:59:48;;;;;;;3.30;3.10;;;23.80;44.20;;;;;;10265256;28;20327;-70
2023/08/16 03:04:51;;;;;;;3.20;3.00;;;23.80;44.30;;;;;;10265233;28;20247;-70
2023/08/16 03:09:54;;;;;;;3.50;3.30;;;23.80;43.90;;;;;;10267651;28;20234;-70
2023/08/16 03:14:59;;;;;;;4.17;3.87;;;23.80;44.10;;;;;;10265462;28;20255;-70
2023/08/16 03:20:02;;;;;;;6.03;3.70;;;23.70;44.40;;;;;;10263827;28;20232;-70
2023/08/16 03:25:06;;;;;;;3.50;3.30;;;23.70;44.10;;;;;;10263937;28;20724;-70
2023/08/16 03:30:12;;;;;;;4.03;3.50;;;23.60;44.00;;;;;;10271893;28;20326;-70
2023/08/16 03:35:15;;;;;;;4.40;4.00;;;23.50;44.80;;;;;;10271723;28;20752;-70
2023/08/16 03:40:18;;;;;;;4.43;3.97;;;23.50;44.40;;;;;;10279258;28;20615;-70
2023/08/16 03:45:25;;;;;;;3.93;3.63;;;23.50;44.50;;;;;;10271683;28;20247;-70
2023/08/16 03:50:28;;;;;;;4.00;3.70;;;23.50;44.60;;;;;;10275824;28;20286;-70
2023/08/16 03:55:31;;;;;;;3.60;3.30;;;23.50;44.50;;;;;;10269320;28;20311;-70
2023/08/16 04:00:36;;;;;;;3.67;3.37;;;23.50;44.50;;;;;;10273259;28;20733;-70
2023/08/16 04:05:39;;;;;;;4.70;3.57;;;23.50;45.00;;;;;;10273207;28;20246;-70
2023/08/16 04:10:42;;;;;;;4.13;3.67;;;23.50;44.80;;;;;;10280221;28;20249;-70
2023/08/16 04:15:48;;;;;;;4.20;3.83;;;23.50;44.70;;;;;;10274032;28;20242;-70
2023/08/16 04:20:52;;;;;;;4.10;3.70;;;23.50;44.90;;;;;;10277029;28;20331;-70
2023/08/16 04:25:55;;;;;;;4.83;3.80;;;23.50;44.50;;;;;;10273294;28;20331;-70
2023/08/16 04:31:00;;;;;;;4.70;4.00;;;23.50;44.60;;;;;;10275977;28;20246;-70
2023/08/16 04:36:03;;;;;;;5.33;3.93;;;23.50;44.90;;;;;;10270856;28;20223;-70
2023/08/16 04:41:06;;;;;;;3.87;3.50;;;23.40;44.60;;;;;;10270093;28;20259;-70
2023/08/16 04:46:11;;;;;;;3.90;3.53;;;23.40;44.60;;;;;;10271738;28;20233;-70
2023/08/16 04:51:14;;;;;;;5.30;3.60;;;23.40;44.70;;;;;;10275598;28;20290;-70
2023/08/16 04:56:17;;;;;;;3.80;3.47;;;23.40;44.60;;;;;;10262248;28;20234;-70
2023/08/16 05:01:22;;;;;;;6.53;3.63;;;23.40;44.70;;;;;;10268603;28;20259;-70
2023/08/16 05:06:25;;;;;;;7.20;4.00;;;23.40;45.10;;;;;;10265787;28;20235;-70
2023/08/16 05:11:28;;;;;;;4.23;3.60;;;23.30;44.70;;;;;;10272347;28;20232;-70
2023/08/16 05:16:33;;;;;;;4.30;3.90;;;23.40;44.80;;;;;;10272758;28;20347;-70
2023/08/16 05:21:36;;;;;;;4.10;3.70;;;23.30;45.30;;;;;;10263764;28;20978;-70
2023/08/16 05:26:39;;;;;;;5.40;4.20;;;23.30;45.00;;;;;;10266272;28;20243;-70
2023/08/16 05:31:44;;;;;;;5.00;4.50;;;23.30;45.10;;;;;;10269070;28;20246;-70
2023/08/16 05:36:48;;;;;;;5.07;4.63;;;23.30;45.80;;;;;;10271163;28;20239;-70
2023/08/16 05:41:51;;;;;;;4.40;4.10;;;23.30;45.40;;;;;;10268907;28;20242;-70
2023/08/16 05:46:56;;;;;;;4.80;4.40;;;23.20;45.50;;;;;;10269406;28;20240;-70
2023/08/16 05:51:59;;;;;;;4.87;4.43;;;23.20;46.50;;;;;;10277569;28;20234;-70
2023/08/16 05:57:03;;;;;;;5.47;4.67;;;23.20;46.10;;;;;;10274676;28;20231;-70
2023/08/16 06:02:07;;;;;;;4.53;4.13;;;23.30;46.40;;;;;;10253135;28;20402;-70
2023/08/16 06:07:10;;;;;;;5.60;5.20;;;23.30;47.00;;;;;;10267702;28;20673;-70
2023/08/16 06:12:14;;;;;;;5.30;4.90;;;23.30;46.70;;;;;;10277681;28;20326;-71
2023/08/16 06:17:18;;;;;;;6.30;5.70;;;23.40;47.20;;;;;;10272915;28;20236;-70
2023/08/16 06:22:22;;;;;;;5.60;5.20;;;23.40;48.10;;;;;;10277567;28;20243;-70
2023/08/16 06:27:25;;;;;;;6.23;5.63;;;23.40;47.70;;;;;;10270562;28;20246;-71
2023/08/16 06:32:30;;;;;;;5.20;4.80;;;23.50;47.90;;;;;;10272817;28;20235;-71
2023/08/16 06:37:33;;;;;;;5.40;4.97;;;23.60;48.90;;;;;;10271075;28;20315;-71
2023/08/16 06:42:40;;;;;;;5.27;4.90;;;23.70;48.30;;;;;;10267935;28;20235;-71
2023/08/16 06:47:45;;;;;;;5.60;5.10;;;23.80;48.40;;;;;;10269402;28;20243;-71
2023/08/16 06:52:48;;;;;;;5.77;5.27;;;23.90;48.90;;;;;;10265373;28;20232;-71
2023/08/16 06:57:51;;;;;;;5.27;4.87;;;24.00;48.60;;;;;;10264565;28;20227;-71
2023/08/16 07:02:56;;;;;;;6.10;5.40;;;24.10;48.80;;;;;;10269067;28;20232;-71
2023/08/16 07:07:59;;;;;;;5.57;5.07;;;24.20;50.00;;;;;;10275138;28;20616;-71
2023/08/16 07:13:02;;;;;;;5.77;4.67;;;24.30;49.10;;;;;;10281525;28;20251;-71
2023/08/16 07:18:07;;;;;;;4.63;4.33;;;24.50;49.10;;;;;;10272420;28;20327;-71
2023/08/16 07:23:10;;;;;;;4.80;4.47;;;24.70;49.20;;;;;;10279312;28;20242;-71
2023/08/16 07:28:13;;;;;;;5.07;4.67;;;24.90;49.00;;;;;;10268364;28;20322;-71
2023/08/16 07:33:18;;;;;;;5.87;5.37;;;25.00;49.00;;;;;;10282908;28;20232;-71
2023/08/16 07:38:21;;;;;;;5.80;5.30;;;25.20;48.90;;;;;;10280910;28;20236;-71
2023/08/16 07:43:24;;;;;;;5.40;5.00;;;25.30;48.30;;;;;;10274488;28;20227;-71
2023/08/16 07:48:29;;;;;;;5.23;4.83;;;25.40;48.20;;;;;;10269571;28;20808;-71
2023/08/16 07:53:32;;;;;;;4.27;3.97;;;25.60;48.00;;;;;;10278186;28;20240;-71
2023/08/16 07:58:36;;;;;;;4.83;4.43;;;25.70;47.70;;;;;;10269263;28;20228;-71
2023/08/16 08:03:41;;;;;;;5.17;4.67;;;25.90;47.70;;;;;;10278292;28;20309;-71
2023/08/16 08:08:44;;;;;;;5.17;4.73;;;26.10;48.00;;;;;;10268217;28;20324;-71
2023/08/16 08:13:47;;;;;;;7.00;5.40;;;26.20;47.80;;;;;;10269972;28;20708;-71
2023/08/16 08:18:52;;;;;;;5.23;4.70;;;26.50;47.60;;;;;;10271550;28;20228;-71
2023/08/16 08:23:55;;;;;;;6.00;4.77;;;26.70;47.00;;;;;;10265690;28;20286;-71
2023/08/16 08:28:59;;;;;;;5.40;4.90;;;26.80;46.90;;;;;;10265592;28;20236;-71
2023/08/16 08:34:04;;;;;;;4.97;4.57;;;27.00;47.00;;;;;;10262788;28;20232;-71
2023/08/16 08:39:07;;;;;;;5.10;4.80;;;27.20;47.00;;;;;;10268273;28;20239;-71
2023/08/16 08:44:10;;;;;;;4.90;4.50;;;27.40;47.00;;;;;;10266422;28;20244;-71
2023/08/16 08:49:16;;;;;;;5.47;4.90;;;27.70;46.80;;;;;;10265603;28;20235;-71
2023/08/16 08:54:19;;;;;;;5.73;5.00;;;27.80;46.30;;;;;;10268372;28;20239;-71
2023/08/16 08:59:23;;;;;;;5.40;4.73;;;28.10;46.30;;;;;;10268437;28;20855;-71
2023/08/16 09:04:30;;;;;;;5.53;4.80;;;28.40;45.90;;;;;;10273740;28;20228;-71
2023/08/16 09:09:34;;;;;;;5.63;5.20;;;28.70;45.50;;;;;;10271414;28;20255;-71
2023/08/16 09:14:37;;;;;;;5.43;5.03;;;28.90;45.20;;;;;;10267937;28;20240;-71
2023/08/16 09:19:47;;;;;;;4.83;4.53;;;29.20;44.90;;;;;;10269169;28;20249;-71
2023/08/16 09:24:55;;;;;;;5.17;4.67;;;29.40;42.70;;;;;;10264514;28;20232;-71
2023/08/16 09:29:58;;;;;;;4.63;4.23;;;29.60;43.40;;;;;;10261388;28;20326;-71
2023/08/16 09:35:03;;;;;;;4.43;4.03;;;29.80;42.70;;;;;;10267805;28;20752;-71
2023/08/16 09:40:09;;;;;;;5.63;4.27;;;30.10;42.70;;;;;;10268568;28;20620;-71
2023/08/16 09:45:12;;;;;;;4.73;4.33;;;30.30;41.60;;;;;;10269198;28;20332;-71
2023/08/16 09:50:21;;;;;;;4.40;4.00;;;30.50;41.60;;;;;;10261455;28;20236;-71
2023/08/16 09:55:28;;;;;;;4.67;4.30;;;30.70;40.70;;;;;;10261696;28;20235;-71
2023/08/16 10:00:32;;;;;;;4.80;4.40;;;30.90;39.60;;;;;;10270172;28;20643;-71
2023/08/16 10:05:38;;;;;;;4.47;4.07;;;31.10;39.70;;;;;;10264929;28;20244;-71
2023/08/16 10:10:45;;;;;;;4.07;3.67;;;31.30;38.40;;;;;;10265009;28;20609;-71
2023/08/16 10:15:53;;;;;;;4.30;4.00;;;31.40;38.60;;;;;;10262247;28;20236;-71
2023/08/16 10:21:00;;;;;;;4.37;4.07;;;31.40;36.90;;;;;;10263842;28;20239;-71
2023/08/16 10:26:05;;;;;;;4.63;4.23;;;31.50;37.20;;;;;;10260761;28;20250;-71
2023/08/16 10:31:10;;;;;;;3.73;3.50;;;31.50;37.60;;;;;;10269843;28;20238;-71
2023/08/16 10:36:18;;;;;;;3.70;3.50;;;31.60;36.80;;;;;;10266292;28;20239;-71
2023/08/16 10:41:21;;;;;;;3.77;3.47;;;31.80;35.50;;;;;;10267721;28;20274;-72
2023/08/16 10:46:28;;;;;;;3.33;3.13;;;32.00;36.30;;;;;;10263996;28;20290;-71
2023/08/16 10:51:44;;;;;;;3.50;3.20;;;32.10;34.20;;;;;;10264106;28;20236;-71
2023/08/16 10:56:48;;;;;;;3.70;3.17;;;32.20;34.50;;;;;;10264266;28;20247;-71
2023/08/16 11:01:51;;;;;;;3.23;2.93;;;32.40;34.20;;;;;;10266910;28;20303;-72
2023/08/16 11:06:58;;;;;;;4.07;3.00;;;32.40;34.50;;;;;;10262713;28;20246;-71
2023/08/16 11:12:06;;;;;;;3.30;3.00;;;32.50;33.20;;;;;;10264642;28;20290;-71
2023/08/16 11:17:09;;;;;;;3.23;2.97;;;32.50;33.20;;;;;;10261988;28;20247;-71
2023/08/16 11:22:14;;;;;;;4.10;3.00;;;32.60;33.30;;;;;;10261875;28;20234;-71
2023/08/16 11:27:21;;;;;;;3.43;2.90;;;32.60;32.30;;;;;;10262934;28;20246;-71
2023/08/16 11:32:33;;;;;;;3.30;3.00;;;32.70;31.50;;;;;;10265357;28;20641;-71
2023/08/16 11:37:40;;;;;;;3.13;2.83;;;32.80;31.20;;;;;;10265774;28;20314;-71
2023/08/16 11:42:44;;;;;;;3.47;2.67;;;32.70;31.30;;;;;;10266918;28;20832;-71
2023/08/16 11:47:51;;;;;;;3.03;2.83;;;32.70;32.40;;;;;;10267949;28;20628;-71
2023/08/16 11:52:59;;;;;;;3.00;2.80;;;32.70;30.70;;;;;;10264966;28;20247;-71
2023/08/16 11:58:08;;;;;;;3.07;2.77;;;32.80;30.20;;;;;;10267709;28;20223;-71
2023/08/16 12:03:12;;;;;;;2.90;2.70;;;32.80;29.80;;;;;;10267552;28;20648;-71
2023/08/16 12:08:21;;;;;;;3.00;2.80;;;32.90;30.90;;;;;;10270974;28;20704;-71
2023/08/16 12:13:24;;;;;;;2.50;2.33;;;32.90;29.90;;;;;;10266944;28;20232;-71
2023/08/16 12:18:28;;;;;;;2.70;2.50;;;32.90;30.30;;;;;;10270982;28;20723;-71
2023/08/16 12:23:32;;;;;;;3.07;2.70;;;33.00;30.30;;;;;;10273621;28;20290;-71
2023/08/16 12:28:35;;;;;;;2.40;2.30;;;33.00;29.40;;;;;;10274168;28;20236;-71
2023/08/16 12:33:40;;;;;;;2.97;2.43;;;33.00;30.30;;;;;;10268043;28;20231;-71
2023/08/16 12:38:45;;;;;;;2.40;2.30;;;33.10;29.70;;;;;;10267256;28;20239;-71
2023/08/16 12:43:48;;;;;;;2.73;2.53;;;33.10;29.10;;;;;;10269364;28;20256;-71
2023/08/16 12:48:52;;;;;;;2.80;2.60;;;33.10;29.30;;;;;;10273414;28;20243;-71
2023/08/16 12:53:56;;;;;;;2.60;2.40;;;33.20;29.00;;;;;;10270925;28;20320;-71
2023/08/16 12:58:59;;;;;;;2.80;2.60;;;33.20;28.70;;;;;;10266264;28;20230;-71
2023/08/16 13:04:03;;;;;;;2.80;2.60;;;33.20;28.80;;;;;;10270018;28;20243;-71
2023/08/16 13:09:17;;;;;;;2.57;2.47;;;33.20;28.90;;;;;;10271062;28;20310;-71
2023/08/16 13:14:30;;;;;;;2.57;2.37;;;33.10;28.10;;;;;;10265955;28;20282;-71
2023/08/16 13:19:34;;;;;;;3.50;2.70;;;33.10;28.40;;;;;;10269726;28;20757;-71
2023/08/16 13:24:41;;;;;;;2.50;2.40;;;33.10;28.50;;;;;;10262503;28;20229;-71
2023/08/16 13:30:00;;;;;;;2.57;2.37;;;33.10;27.70;;;;;;10260438;28;20228;-71
2023/08/16 13:35:19;;;;;;;2.63;2.30;;;33.00;27.90;;;;;;10267545;28;20231;-71
2023/08/16 13:40:36;;;;;;;2.60;2.40;;;33.00;27.90;;;;;;10265969;28;20235;-71
2023/08/16 13:45:44;;;;;;;2.50;2.40;;;33.00;27.30;;;;;;10265741;28;20748;-71
2023/08/16 13:50:48;;;;;;;2.97;2.70;;;33.00;27.40;;;;;;10262990;28;20241;-71
2023/08/16 13:55:52;;;;;;;2.67;2.47;;;33.00;27.30;;;;;;10260813;28;20267;-71
2023/08/16 14:00:55;;;;;;;2.60;2.40;;;33.00;26.80;;;;;;10270770;28;20764;-71
2023/08/16 14:06:00;;;;;;;2.80;2.53;;;33.10;27.30;;;;;;10268885;28;21021;-71
2023/08/16 14:11:05;;;;;;;2.63;2.43;;;33.10;27.30;;;;;;10260925;28;20277;-71
2023/08/16 14:16:09;;;;;;;2.73;2.53;;;33.10;26.50;;;;;;10268439;28;20322;-71
2023/08/16 14:21:12;;;;;;;2.70;2.30;;;33.10;26.90;;;;;;10268161;28;20318;-71
2023/08/16 14:26:18;;;;;;;2.60;2.43;;;33.10;26.70;;;;;;10268075;28;20322;-71
2023/08/16 14:31:24;;;;;;;2.30;2.20;;;33.10;26.20;;;;;;10264313;28;20327;-71
2023/08/16 14:36:27;;;;;;;2.30;2.20;;;33.20;26.60;;;;;;10265161;28;20235;-71
2023/08/16 14:41:31;;;;;;;2.77;2.57;;;33.30;26.60;;;;;;10262776;28;20273;-71
2023/08/16 14:46:35;;;;;;;2.40;2.20;;;33.30;26.20;;;;;;10261199;28;20259;-71
2023/08/16 14:51:38;;;;;;;2.47;2.33;;;33.50;26.60;;;;;;10268638;28;20245;-72
2023/08/16 14:56:42;;;;;;;2.53;2.33;;;33.50;26.20;;;;;;10262240;28;20268;-71
2023/08/16 15:01:46;;;;;;;2.87;2.67;;;33.40;25.70;;;;;;10260001;28;20236;-71
2023/08/16 15:06:49;;;;;;;2.77;2.57;;;33.40;25.90;;;;;;10263821;28;20307;-71
2023/08/16 15:11:54;;;;;;;2.80;2.60;;;33.40;26.00;;;;;;10260378;28;20241;-71
2023/08/16 15:16:58;;;;;;;2.53;2.40;;;33.40;25.60;;;;;;10262244;28;20244;-71
2023/08/16 15:22:01;;;;;;;2.80;2.60;;;33.50;26.00;;;;;;10258906;28;20266;-71
2023/08/16 15:27:06;;;;;;;2.67;2.50;;;33.40;25.90;;;;;;10270246;28;20316;-71
2023/08/16 15:32:09;;;;;;;2.83;2.60;;;33.50;25.40;;;;;;10274864;28;20240;-71
2023/08/16 15:37:13;;;;;;;2.70;2.50;;;33.50;25.50;;;;;;10277944;28;20323;-71
2023/08/16 15:42:18;;;;;;;3.00;2.80;;;33.50;25.50;;;;;;10269306;28;20252;-71
2023/08/16 15:47:21;;;;;;;3.67;2.80;;;33.50;25.10;;;;;;10271038;28;20266;-71
2023/08/16 15:52:24;;;;;;;2.80;2.60;;;33.50;25.30;;;;;;10269073;28;20240;-71
2023/08/16 15:57:29;;;;;;;2.77;2.47;;;33.40;25.40;;;;;;10269392;28;20309;-71
2023/08/16 16:02:32;;;;;;;3.60;2.87;;;33.40;24.70;;;;;;10268701;28;20250;-71
2023/08/16 16:07:35;;;;;;;2.83;2.50;;;33.40;25.10;;;;;;10272944;28;20718;-71
2023/08/16 16:12:40;;;;;;;2.63;2.53;;;33.40;24.90;;;;;;10269666;28;20702;-71
2023/08/16 16:17:43;;;;;;;2.87;2.60;;;33.40;24.30;;;;;;10266137;28;20257;-71
2023/08/16 16:22:46;;;;;;;3.90;2.70;;;33.40;24.70;;;;;;10266256;28;20323;-71
2023/08/16 16:27:51;;;;;;;2.57;2.37;;;33.30;24.70;;;;;;10270727;28;20244;-71
2023/08/16 16:32:54;;;;;;;2.80;2.60;;;33.30;24.10;;;;;;10275166;28;20240;-71
2023/08/16 16:37:58;;;;;;;2.90;2.70;;;33.30;24.50;;;;;;10269021;28;20246;-71
2023/08/16 16:43:02;;;;;;;2.67;2.57;;;33.30;24.30;;;;;;10272633;28;20714;-71
2023/08/16 16:48:06;;;;;;;3.00;2.80;;;33.40;24.10;;;;;;10264746;28;20230;-71
2023/08/16 16:53:11;;;;;;;2.30;2.20;;;33.30;24.30;;;;;;10268058;28;20265;-71
2023/08/16 16:58:16;;;;;;;2.83;2.47;;;33.30;24.30;;;;;;10267941;28;20234;-72
2023/08/16 17:03:19;;;;;;;2.87;2.67;;;33.40;24.30;;;;;;10268072;28;20243;-71
2023/08/16 17:08:22;;;;;;;2.50;2.40;;;33.40;24.40;;;;;;10267272;28;20239;-71
2023/08/16 17:13:26;;;;;;;3.03;2.67;;;33.30;24.40;;;;;;10268639;28;20237;-71
2023/08/16 17:18:30;;;;;;;4.27;2.70;;;33.30;24.20;;;;;;10269794;28;20241;-70
2023/08/16 17:23:33;;;;;;;2.70;2.50;;;33.30;24.50;;;;;;10263505;28;20258;-71
2023/08/16 17:28:38;;;;;;;2.93;2.73;;;33.30;24.40;;;;;;10269837;28;20231;-71
2023/08/16 17:33:41;;;;;;;3.10;2.90;;;33.20;24.00;;;;;;10267878;28;20228;-71
2023/08/16 17:38:46;;;;;;;3.33;2.97;;;33.20;24.50;;;;;;10268182;28;20246;-71
2023/08/16 17:43:52;;;;;;;3.50;3.20;;;33.20;24.70;;;;;;10264272;28;20291;-71
2023/08/16 17:48:55;;;;;;;2.77;2.50;;;33.20;25.40;;;;;;10262144;28;20233;-71
2023/08/16 17:53:58;;;;;;;3.00;2.80;;;33.10;25.30;;;;;;10261863;28;20326;-71
2023/08/16 17:59:03;;;;;;;3.20;3.00;;;33.00;25.40;;;;;;10262538;28;20311;-71
2023/08/16 18:04:07;;;;;;;3.10;2.90;;;32.90;25.60;;;;;;10263150;28;20228;-70
2023/08/16 18:09:10;;;;;;;2.90;2.70;;;32.70;26.00;;;;;;10262947;28;20843;-71
2023/08/16 18:14:14;;;;;;;2.93;2.73;;;32.60;26.30;;;;;;10259695;28;20231;-70
2023/08/16 18:19:17;;;;;;;3.10;2.80;;;32.40;26.60;;;;;;10262466;28;20318;-70
2023/08/16 18:24:21;;;;;;;3.27;2.97;;;32.30;26.60;;;;;;10257623;28;20741;-70
2023/08/16 18:29:28;;;;;;;3.03;2.83;;;32.20;26.90;;;;;;10261065;28;20239;-71
2023/08/16 18:34:31;;;;;;;3.13;2.87;;;32.00;27.10;;;;;;10260879;28;20238;-70
2023/08/16 18:39:34;;;;;;;3.50;3.20;;;31.70;27.60;;;;;;10263065;28;20304;-70
2023/08/16 18:44:40;;;;;;;5.50;3.00;;;31.50;27.00;;;;;;10267216;28;20239;-71
2023/08/16 18:49:43;;;;;;;3.20;2.90;;;31.40;27.50;;;;;;10260384;28;20235;-70
2023/08/16 18:54:46;;;;;;;3.30;3.10;;;31.20;27.50;;;;;;10261420;28;20228;-70
2023/08/16 18:59:51;;;;;;;3.27;3.07;;;31.10;27.70;;;;;;10265661;28;20236;-70
2023/08/16 19:04:55;;;;;;;4.50;3.50;;;30.90;27.90;;;;;;10266226;28;20314;-70
2023/08/16 19:09:58;;;;;;;4.77;3.67;;;30.90;28.00;;;;;;10262455;28;20243;-70
2023/08/16 19:15:02;;;;;;;4.00;3.70;;;30.70;28.00;;;;;;10265920;28;20230;-70
2023/08/16 19:20:07;;;;;;;5.03;3.50;;;30.60;28.30;;;;;;10257247;28;20236;-70
2023/08/16 19:25:10;;;;;;;3.47;3.23;;;30.50;28.40;;;;;;10260721;28;20240;-70
2023/08/16 19:30:16;;;;;;;3.47;3.20;;;30.40;28.60;;;;;;10262531;28;20225;-71
2023/08/16 19:35:19;;;;;;;3.50;3.20;;;30.30;28.90;;;;;;10260382;28;20319;-71
2023/08/16 19:40:22;;;;;;;3.47;3.07;;;30.30;28.80;;;;;;10261863;28;20315;-71
2023/08/16 19:45:27;;;;;;;3.73;3.43;;;30.30;29.00;;;;;;10260700;28;20227;-71
2023/08/16 19:50:30;;;;;;;4.80;4.40;;;30.20;29.20;;;;;;10261217;28;20861;-71
2023/08/16 19:55:34;;;;;;;4.30;3.90;;;30.20;28.90;;;;;;10259948;28;20236;-70
2023/08/16 20:00:38;;;;;;;4.10;3.70;;;29.90;28.90;;;;;;10261235;28;20778;-71
2023/08/16 20:05:42;;;;;;;4.00;3.70;;;29.60;29.30;;;;;;10257749;28;20247;-70
2023/08/16 20:10:45;;;;;;;3.87;3.57;;;29.50;29.70;;;;;;10261402;28;20775;-70
2023/08/16 20:15:50;;;;;;;3.73;3.43;;;29.30;29.80;;;;;;10267371;28;20231;-70
2023/08/16 20:20:54;;;;;;;3.97;3.67;;;29.20;30.60;;;;;;10271320;28;20319;-70
2023/08/16 20:25:57;;;;;;;3.57;3.37;;;29.20;30.10;;;;;;10267216;28;20985;-71
2023/08/16 20:31:02;;;;;;;5.07;4.67;;;29.10;30.10;;;;;;10267967;28;20392;-71
2023/08/16 20:36:05;;;;;;;4.73;4.00;;;29.00;30.60;;;;;;10270962;28;20596;-70
2023/08/16 20:41:08;;;;;;;4.67;4.33;;;28.80;30.50;;;;;;10263098;28;20244;-71
2023/08/16 20:46:13;;;;;;;4.60;4.23;;;28.70;30.60;;;;;;10271768;28;20228;-71
2023/08/16 20:51:16;;;;;;;4.80;4.40;;;28.50;30.50;;;;;;10266086;28;20239;-70
2023/08/16 20:56:19;;;;;;;4.60;4.13;;;28.40;30.50;;;;;;10263839;28;20238;-70
2023/08/16 21:01:24;;;;;;;4.53;4.13;;;28.20;30.60;;;;;;10266899;28;20251;-70
2023/08/16 21:06:28;;;;;;;4.73;4.33;;;27.90;31.50;;;;;;10268584;28;20288;-70
2023/08/16 21:11:32;;;;;;;4.80;4.50;;;27.70;31.60;;;;;;10271059;28;20847;-70
2023/08/16 21:16:36;;;;;;;4.47;3.93;;;27.50;32.00;;;;;;10271124;28;20790;-70
2023/08/16 21:21:39;;;;;;;4.50;4.20;;;27.40;32.70;;;;;;10269445;28;20231;-70
2023/08/16 21:26:43;;;;;;;4.23;3.93;;;27.40;32.30;;;;;;10263213;28;20231;-70
2023/08/16 21:31:48;;;;;;;4.07;3.77;;;27.30;32.60;;;;;;10273067;28;20243;-70
2023/08/16 21:36:51;;;;;;;4.17;3.87;;;27.30;33.10;;;;;;10262055;28;20244;-70
2023/08/16 21:41:54;;;;;;;4.17;3.87;;;27.30;32.70;;;;;;10268504;28;20228;-70
2023/08/16 21:46:59;;;;;;;5.47;3.93;;;27.30;32.80;;;;;;10260274;28;20232;-70
2023/08/16 21:52:02;;;;;;;4.90;4.50;;;27.30;33.30;;;;;;10263559;28;20932;-71
2023/08/16 21:57:05;;;;;;;4.77;4.37;;;27.30;32.80;;;;;;10257355;28;20235;-70
2023/08/16 22:02:09;;;;;;;4.07;3.77;;;27.20;32.90;;;;;;10261656;28;20239;-70
2023/08/16 22:07:13;;;;;;;5.23;4.57;;;27.20;33.30;;;;;;10259312;28;20251;-70
2023/08/16 22:12:16;;;;;;;4.47;4.17;;;27.10;33.20;;;;;;10259680;28;20235;-71
2023/08/16 22:17:20;;;;;;;4.30;4.00;;;27.10;33.10;;;;;;10261691;28;20966;-71
2023/08/16 22:22:24;;;;;;;4.87;4.37;;;27.00;33.60;;;;;;10262617;28;20255;-69
2023/08/16 22:27:27;;;;;;;5.20;4.70;;;26.90;33.40;;;;;;10259339;28;20267;-70
2023/08/16 22:32:31;;;;;;;5.30;4.90;;;26.80;33.60;;;;;;10260936;28;20244;-70
2023/08/16 22:37:34;;;;;;;5.07;4.67;;;26.80;34.10;;;;;;10259907;28;20231;-70
2023/08/16 22:42:38;;;;;;;4.60;4.30;;;26.70;33.90;;;;;;10258977;28;20800;-70
2023/08/16 22:47:42;;;;;;;5.43;4.37;;;26.60;33.90;;;;;;10261039;28;20279;-70
2023/08/16 22:52:45;;;;;;;4.17;3.87;;;26.50;34.30;;;;;;10267679;28;20286;-70
2023/08/16 22:57:49;;;;;;;5.17;4.80;;;26.40;34.00;;;;;;10269122;28;20235;-71
2023/08/16 23:02:53;;;;;;;4.67;4.33;;;26.10;34.30;;;;;;10264537;28;20236;-71
2023/08/16 23:07:56;;;;;;;5.37;4.90;;;26.00;34.80;;;;;;10260458;28;20235;-70
2023/08/16 23:12:59;;;;;;;5.20;4.70;;;26.00;34.70;;;;;;10262904;28;20232;-70
2023/08/16 23:18:05;;;;;;;5.20;4.80;;;25.90;34.90;;;;;;10261369;28;20278;-70
2023/08/16 23:23:09;;;;;;;5.70;5.30;;;25.80;35.70;;;;;;10257691;28;20250;-70
2023/08/16 23:28:12;;;;;;;4.83;4.43;;;25.70;35.30;;;;;;10265699;28;21229;-70
2023/08/16 23:33:17;;;;;;;5.07;4.67;;;25.60;35.30;;;;;;10261694;28;20730;-71
2023/08/16 23:38:20;;;;;;;5.57;5.17;;;25.50;36.00;;;;;;10263774;28;20259;-71
2023/08/16 23:43:24;;;;;;;5.63;5.17;;;25.40;35.70;;;;;;10257424;28;20968;-70
2023/08/16 23:48:29;;;;;;;4.57;4.27;;;25.20;36.00;;;;;;10267126;28;20236;-71
2023/08/16 23:53:32;;;;;;;5.07;4.67;;;25.20;36.80;;;;;;10269479;28;20247;-70
2023/08/16 23:58:35;;;;;;;5.33;4.93;;;25.10;36.40;;;;;;10269151;28;20239;-70
